createdAt,value
2019-03-30T00:01:31.453Z,98996.37
2019-03-30T00:04:03.310Z,98992.97
2019-03-30T00:06:36.454Z,98996.91
2019-03-30T00:09:09.732Z,98994.11
2019-03-30T00:11:42.994Z,99000.98
2019-03-30T00:14:14.252Z,98993.41
2019-03-30T00:16:45.496Z,98992.42
2019-03-30T00:19:17.508Z,98996.61
2019-03-30T00:21:48.791Z,99001.58
2019-03-30T00:24:20.541Z,98987.81
2019-03-30T00:26:53.221Z,98990.59
2019-03-30T00:29:24.822Z,98990.45
2019-03-30T00:31:57.874Z,98994.87
2019-03-30T00:34:29.107Z,98994.53
2019-03-30T00:37:02.160Z,98992.23
2019-03-30T00:39:36.381Z,98988.16
2019-03-30T00:42:10.241Z,98990.05
2019-03-30T00:44:41.487Z,98982.61
2019-03-30T00:47:12.869Z,98984.73
2019-03-30T00:49:49.821Z,98980.03
2019-03-30T00:52:19.122Z,98982.84
2019-03-30T00:54:52.506Z,98981.52
2019-03-30T00:57:23.739Z,98980.23
2019-03-30T00:59:55.511Z,98975.36
2019-03-30T01:02:28.479Z,98974.94
2019-03-30T01:04:59.834Z,98985.77
2019-03-30T01:07:32.912Z,98980.12
2019-03-30T01:10:04.175Z,98977.45
2019-03-30T01:12:36.688Z,98973.09
2019-03-30T01:15:09.097Z,98971.54
2019-03-30T01:17:39.895Z,98967.39
2019-03-30T01:20:10.929Z,98976.90
2019-03-30T01:22:41.826Z,98973.64
2019-03-30T01:25:12.893Z,98976.55
2019-03-30T01:27:46.613Z,98971.58
2019-03-30T01:30:23.358Z,98968.90
2019-03-30T01:32:49.838Z,98970.63
2019-03-30T01:35:20.954Z,98966.61
2019-03-30T01:37:51.946Z,98965.48
2019-03-30T01:40:22.902Z,98967.72
2019-03-30T01:42:53.606Z,98958.81
2019-03-30T01:45:24.677Z,98952.45
2019-03-30T01:47:55.465Z,98946.95
2019-03-30T01:50:26.453Z,98954.54
2019-03-30T01:52:57.201Z,98951.59
2019-03-30T01:55:28.032Z,98950.98
2019-03-30T01:57:58.721Z,98948.34
2019-03-30T02:00:29.616Z,98953.38
2019-03-30T02:03:00.512Z,98950.63
2019-03-30T02:05:31.568Z,98948.31
2019-03-30T02:08:02.528Z,98959.61
2019-03-30T02:10:41.396Z,98954.28
2019-03-30T02:13:12.308Z,98951.92
2019-03-30T02:15:43.134Z,98954.05
2019-03-30T02:18:13.935Z,98957.54
2019-03-30T02:20:45.592Z,98957.54
2019-03-30T02:23:16.233Z,98960.52
2019-03-30T02:25:49.078Z,98955.77
2019-03-30T02:28:20.017Z,98951.41
2019-03-30T02:30:51.364Z,98954.28
2019-03-30T02:33:31.527Z,98954.16
2019-03-30T02:36:02.635Z,98958.36
2019-03-30T02:38:33.472Z,98953.09
2019-03-30T02:41:04.211Z,98958.30
2019-03-30T02:43:35.173Z,98947.75
2019-03-30T02:46:05.938Z,98949.75
2019-03-30T02:48:37.093Z,98950.58
2019-03-30T02:51:07.980Z,98947.55
2019-03-30T02:53:38.763Z,98940.36
2019-03-30T02:56:09.891Z,98938.57
2019-03-30T02:58:40.776Z,98943.97
2019-03-30T03:01:11.912Z,98941.02
2019-03-30T03:03:43.382Z,98945.69
2019-03-30T03:06:14.308Z,98941.29
2019-03-30T03:08:45.083Z,98944.92
2019-03-30T03:11:16.135Z,98942.69
2019-03-30T03:13:47.078Z,98940.63
2019-03-30T03:16:18.344Z,98941.05
2019-03-30T03:18:49.222Z,98941.11
2019-03-30T03:21:20.460Z,98937.54
2019-03-30T03:23:51.354Z,98937.62
2019-03-30T03:26:22.464Z,98933.48
2019-03-30T03:28:53.383Z,98929.06
2019-03-30T03:31:25.593Z,98931.55
2019-03-30T03:33:56.505Z,98928.30
2019-03-30T03:36:27.664Z,98927.28
2019-03-30T03:38:58.720Z,98932.02
2019-03-30T03:41:29.728Z,98933.03
2019-03-30T03:44:01.467Z,98939.39
2019-03-30T03:46:32.470Z,98932.19
2019-03-30T03:49:03.399Z,98934.81
2019-03-30T03:51:34.519Z,98934.30
2019-03-30T03:54:06.326Z,98936.74
2019-03-30T03:56:38.966Z,98930.82
2019-03-30T03:59:11.875Z,98934.22
2019-03-30T04:01:42.939Z,98927.81
2019-03-30T04:04:14.414Z,98931.16
2019-03-30T04:06:46.423Z,98929.23
2019-03-30T04:09:18.185Z,98928.48
2019-03-30T04:11:49.234Z,98923.27
2019-03-30T04:14:21.974Z,98925.78
2019-03-30T04:16:52.895Z,98932.86
2019-03-30T04:19:24.090Z,98936.16
2019-03-30T04:21:54.817Z,98928.81
2019-03-30T04:24:25.767Z,98932.44
2019-03-30T04:26:56.766Z,98926.20
2019-03-30T04:29:27.649Z,98938.95
2019-03-30T04:31:58.498Z,98938.95
2019-03-30T04:34:29.340Z,98926.92
2019-03-30T04:37:00.378Z,98924.57
2019-03-30T04:39:31.365Z,98923.66
2019-03-30T04:42:02.260Z,98923.38
2019-03-30T04:44:34.130Z,98922.17
2019-03-30T04:47:05.179Z,98925.02
2019-03-30T04:49:36.580Z,98921.48
2019-03-30T04:52:09.620Z,98926.39
2019-03-30T04:54:41.154Z,98914.04
2019-03-30T04:57:14.077Z,98915.59
2019-03-30T04:59:50.486Z,98917.33
2019-03-30T05:02:22.181Z,98917.33
2019-03-30T05:04:53.296Z,98919.77
2019-03-30T05:07:24.342Z,98923.60
2019-03-30T05:09:55.118Z,98920.94
2019-03-30T05:12:25.982Z,98923.60
2019-03-30T05:14:57.101Z,98924.20
2019-03-30T05:17:28.066Z,98930.03
2019-03-30T05:19:59.079Z,98928.70
2019-03-30T05:22:29.944Z,98937.56
2019-03-30T05:25:01.044Z,98936.08
2019-03-30T05:27:32.122Z,98926.64
2019-03-30T05:30:03.015Z,98931.52
2019-03-30T05:32:33.782Z,98922.87
2019-03-30T05:35:05.436Z,98930.62
2019-03-30T05:37:36.128Z,98932.56
2019-03-30T05:40:07.953Z,98922.52
2019-03-30T05:42:38.934Z,98922.52
2019-03-30T05:45:10.750Z,98928.03
2019-03-30T05:47:41.501Z,98935.22
2019-03-30T05:50:12.552Z,98937.48
2019-03-30T05:52:43.456Z,98937.81
2019-03-30T05:55:15.091Z,98929.67
2019-03-30T05:57:46.015Z,98926.80
2019-03-30T06:00:19.969Z,98931.55
2019-03-30T06:02:50.765Z,98931.03
2019-03-30T06:05:21.731Z,98931.70
2019-03-30T06:07:52.636Z,98933.41
2019-03-30T06:10:23.529Z,98925.25
2019-03-30T06:12:54.869Z,98930.02
2019-03-30T06:15:25.582Z,98923.88
2019-03-30T06:17:56.636Z,98927.52
2019-03-30T06:20:27.409Z,98924.88
2019-03-30T06:22:58.720Z,98919.95
2019-03-30T06:25:30.017Z,98913.06
2019-03-30T06:28:01.123Z,98924.89
2019-03-30T06:30:32.073Z,98918.37
2019-03-30T06:33:03.223Z,98919.25
2019-03-30T06:35:34.424Z,98920.32
2019-03-30T06:38:05.614Z,98923.47
2019-03-30T06:40:36.871Z,98922.44
2019-03-30T06:43:08.201Z,98927.89
2019-03-30T06:45:39.315Z,98925.92
2019-03-30T06:48:10.387Z,98924.94
2019-03-30T06:50:41.426Z,98930.98
2019-03-30T06:53:12.174Z,98922.16
2019-03-30T06:55:42.971Z,98919.85
2019-03-30T06:58:13.988Z,98925.42
2019-03-30T07:00:45.123Z,98923.45
2019-03-30T07:03:16.691Z,98930.28
2019-03-30T07:05:47.518Z,98926.05
2019-03-30T07:08:18.737Z,98925.49
2019-03-30T07:10:49.940Z,98924.97
2019-03-30T07:13:20.850Z,98920.08
2019-03-30T07:15:51.564Z,98921.96
2019-03-30T07:18:22.765Z,98922.47
2019-03-30T07:20:53.678Z,98921.65
2019-03-30T07:23:24.922Z,98923.22
2019-03-30T07:25:55.849Z,98929.41
2019-03-30T07:28:27.151Z,98929.52
2019-03-30T07:30:57.949Z,98923.80
2019-03-30T07:33:28.899Z,98918.75
2019-03-30T07:36:00.004Z,98918.91
2019-03-30T07:38:30.976Z,98921.66
2019-03-30T07:41:01.983Z,98922.70
2019-03-30T07:43:33.120Z,98924.74
2019-03-30T07:46:04.169Z,98920.60
2019-03-30T07:48:35.240Z,98922.20
2019-03-30T07:51:06.092Z,98926.55
2019-03-30T07:53:44.373Z,98921.36
2019-03-30T07:56:10.752Z,98925.39
2019-03-30T07:58:41.516Z,98917.77
2019-03-30T08:01:12.619Z,98915.74
2019-03-30T08:03:43.682Z,98909.92
2019-03-30T08:06:14.835Z,98919.25
2019-03-30T08:08:45.889Z,98912.25
2019-03-30T08:11:16.965Z,98907.45
2019-03-30T08:13:48.004Z,98911.89
2019-03-30T08:16:18.849Z,98906.60
2019-03-30T08:18:49.730Z,98918.86
2019-03-30T08:21:20.960Z,98903.91
2019-03-30T08:23:52.195Z,98916.55
2019-03-30T08:26:26.218Z,98911.50
2019-03-30T08:28:57.484Z,98907.36
2019-03-30T08:31:28.328Z,98907.02
2019-03-30T08:33:59.259Z,98906.25
2019-03-30T08:36:30.155Z,98903.46
2019-03-30T08:39:01.015Z,98899.31
2019-03-30T08:41:33.453Z,98903.41
2019-03-30T08:44:04.473Z,98905.02
2019-03-30T08:46:35.650Z,98898.23
2019-03-30T08:49:06.545Z,98900.97
2019-03-30T08:51:37.745Z,98904.39
2019-03-30T08:54:08.956Z,98906.50
2019-03-30T08:56:40.120Z,98904.91
2019-03-30T08:59:10.989Z,98897.21
2019-03-30T09:01:41.981Z,98897.21
2019-03-30T09:04:13.393Z,98898.92
2019-03-30T09:06:44.387Z,98900.11
2019-03-30T09:09:15.402Z,98897.64
2019-03-30T09:11:49.365Z,98899.67
2019-03-30T09:14:20.530Z,98896.05
2019-03-30T09:16:51.440Z,98896.05
2019-03-30T09:19:22.535Z,98892.38
2019-03-30T09:21:53.362Z,98888.58
2019-03-30T09:24:24.302Z,98887.00
2019-03-30T09:26:56.268Z,98877.73
2019-03-30T09:29:27.353Z,98881.53
2019-03-30T09:32:13.266Z,98882.30
2019-03-30T09:34:31.701Z,98873.78
2019-03-30T09:37:02.952Z,98872.53
2019-03-30T09:39:33.970Z,98872.08
2019-03-30T09:42:05.242Z,98869.50
2019-03-30T09:44:36.352Z,98868.52
2019-03-30T09:47:07.434Z,98865.16
2019-03-30T09:49:38.579Z,98864.16
2019-03-30T09:52:11.732Z,98851.29
2019-03-30T09:54:42.894Z,98858.20
2019-03-30T09:57:14.117Z,98854.34
2019-03-30T09:59:44.855Z,98847.68
2019-03-30T10:02:15.869Z,98857.38
2019-03-30T10:04:46.913Z,98846.29
2019-03-30T10:07:18.043Z,98843.51
2019-03-30T10:09:49.195Z,98839.36
2019-03-30T10:12:20.242Z,98831.47
2019-03-30T10:14:49.774Z,98827.97
2019-03-30T10:17:20.790Z,98828.46
2019-03-30T10:20:03.530Z,98824.55
2019-03-30T10:22:21.424Z,98828.36
2019-03-30T10:24:52.294Z,98820.42
2019-03-30T10:27:23.500Z,98812.94
2019-03-30T10:29:54.505Z,98812.47
2019-03-30T10:32:25.387Z,98804.70
2019-03-30T10:34:57.345Z,98791.88
2019-03-30T10:37:28.486Z,98791.88
2019-03-30T10:39:58.154Z,98790.09
2019-03-30T10:42:29.010Z,98794.82
2019-03-30T10:45:00.336Z,98787.94
2019-03-30T10:47:32.775Z,98786.16
2019-03-30T10:50:03.737Z,98791.52
2019-03-30T10:52:34.987Z,98784.10
2019-03-30T10:55:06.059Z,98785.87
2019-03-30T10:57:37.189Z,98778.53
2019-03-30T11:00:10.078Z,98776.20
2019-03-30T11:02:41.190Z,98773.28
2019-03-30T11:05:12.789Z,98772.94
2019-03-30T11:07:43.804Z,98769.93
2019-03-30T11:10:14.651Z,98769.47
2019-03-30T11:12:44.496Z,98766.73
2019-03-30T11:15:14.178Z,98759.44
2019-03-30T11:17:43.551Z,98760.72
2019-03-30T11:20:13.434Z,98757.20
2019-03-30T11:22:44.380Z,98742.70
2019-03-30T11:25:13.969Z,98741.03
2019-03-30T11:27:43.328Z,98735.78
2019-03-30T11:30:14.390Z,98734.58
2019-03-30T11:32:45.145Z,98730.25
2019-03-30T11:35:16.323Z,98729.23
2019-03-30T11:37:47.528Z,98725.62
2019-03-30T11:40:18.238Z,98710.00
2019-03-30T11:42:49.104Z,98712.20
2019-03-30T11:45:21.289Z,98708.94
2019-03-30T11:47:52.165Z,98716.69
2019-03-30T11:50:23.319Z,98697.23
2019-03-30T11:52:54.427Z,98694.84
2019-03-30T11:55:26.525Z,98699.25
2019-03-30T11:57:57.383Z,98688.44
2019-03-30T12:00:28.447Z,98681.81
2019-03-30T12:02:59.579Z,98683.52
2019-03-30T12:05:30.332Z,98687.44
2019-03-30T12:08:01.331Z,98678.06
2019-03-30T12:10:32.196Z,98670.52
2019-03-30T12:13:03.209Z,98667.48
2019-03-30T12:15:34.120Z,98664.15
2019-03-30T12:18:05.571Z,98666.25
2019-03-30T12:20:36.490Z,98668.05
2019-03-30T12:23:07.224Z,98668.05
2019-03-30T12:25:38.824Z,98661.31
2019-03-30T12:28:10.019Z,98662.33
2019-03-30T12:30:41.241Z,98662.92
2019-03-30T12:33:12.324Z,98654.94
2019-03-30T12:35:43.987Z,98653.36
2019-03-30T12:38:14.928Z,98658.58
2019-03-30T12:40:45.862Z,98655.62
2019-03-30T12:43:17.219Z,98643.41
2019-03-30T12:45:48.217Z,98637.69
2019-03-30T12:48:19.227Z,98634.21
2019-03-30T12:50:50.364Z,98633.75
2019-03-30T12:53:21.566Z,98628.82
2019-03-30T12:55:52.917Z,98626.55
2019-03-30T12:58:23.664Z,98615.21
2019-03-30T13:00:54.644Z,98620.23
2019-03-30T13:03:26.855Z,98611.14
2019-03-30T13:05:58.003Z,98611.65
2019-03-30T13:08:29.226Z,98604.89
2019-03-30T13:11:00.246Z,98598.84
2019-03-30T13:13:31.109Z,98604.57
2019-03-30T13:16:02.105Z,98599.64
2019-03-30T13:18:33.300Z,98593.78
2019-03-30T13:21:04.340Z,98584.32
2019-03-30T13:23:35.385Z,98582.81
2019-03-30T13:26:06.473Z,98585.81
2019-03-30T13:28:37.710Z,98580.86
2019-03-30T13:31:08.583Z,98582.69
2019-03-30T13:33:39.966Z,98578.08
2019-03-30T13:36:12.139Z,98569.23
2019-03-30T13:38:43.260Z,98575.20
2019-03-30T13:41:14.566Z,98562.20
2019-03-30T13:43:45.661Z,98566.14
2019-03-30T13:46:16.526Z,98558.94
2019-03-30T13:48:47.627Z,98556.89
2019-03-30T13:51:19.665Z,98547.76
2019-03-30T13:53:51.000Z,98544.67
2019-03-30T13:56:22.164Z,98550.43
2019-03-30T13:58:53.223Z,98552.59
2019-03-30T14:01:24.147Z,98539.51
2019-03-30T14:03:53.828Z,98539.39
2019-03-30T14:06:24.785Z,98538.42
2019-03-30T14:08:54.488Z,98522.08
2019-03-30T14:11:24.045Z,98526.69
2019-03-30T14:13:53.653Z,98523.34
2019-03-30T14:16:23.529Z,98512.52
2019-03-30T14:18:53.047Z,98506.75
2019-03-30T14:21:23.862Z,98506.16
2019-03-30T14:23:55.029Z,98502.39
2019-03-30T14:26:31.693Z,98497.86
2019-03-30T14:28:58.419Z,98496.78
2019-03-30T14:31:29.214Z,98493.22
2019-03-30T14:34:00.189Z,98486.94
2019-03-30T14:36:51.416Z,98482.45
2019-03-30T14:39:23.511Z,98483.05
2019-03-30T14:41:54.929Z,98476.86
2019-03-30T14:44:26.049Z,98468.30
2019-03-30T14:46:57.162Z,98461.41
2019-03-30T14:49:31.359Z,98453.84
2019-03-30T14:52:02.526Z,98456.16
2019-03-30T14:54:33.735Z,98448.66
2019-03-30T14:57:05.121Z,98452.23
2019-03-30T14:59:36.242Z,98442.89
2019-03-30T15:02:07.284Z,98438.81
2019-03-30T15:04:38.214Z,98436.05
2019-03-30T15:07:09.231Z,98431.11
2019-03-30T15:09:40.495Z,98428.09
2019-03-30T15:12:11.469Z,98422.38
2019-03-30T15:14:42.371Z,98420.97
2019-03-30T15:17:13.214Z,98423.94
2019-03-30T15:19:43.969Z,98420.92
2019-03-30T15:22:14.955Z,98422.83
2019-03-30T15:24:46.481Z,98414.40
2019-03-30T15:27:17.739Z,98406.55
2019-03-30T15:29:49.872Z,98409.39
2019-03-30T15:32:21.057Z,98405.34
2019-03-30T15:34:51.969Z,98403.69
2019-03-30T15:37:23.388Z,98404.98
2019-03-30T15:39:54.621Z,98403.20
2019-03-30T15:42:26.071Z,98408.81
2019-03-30T15:44:57.989Z,98398.50
2019-03-30T15:47:29.061Z,98403.97
2019-03-30T15:49:59.874Z,98400.42
2019-03-30T15:52:31.375Z,98403.58
2019-03-30T15:55:02.170Z,98399.41
2019-03-30T15:57:33.140Z,98397.73
2019-03-30T16:00:06.861Z,98394.47
2019-03-30T16:02:36.800Z,98394.79
2019-03-30T16:05:08.984Z,98395.50
2019-03-30T16:07:39.836Z,98388.02
2019-03-30T16:10:11.935Z,98388.02
2019-03-30T16:12:43.120Z,98388.62
2019-03-30T16:15:15.386Z,98390.64
2019-03-30T16:17:46.372Z,98386.16
2019-03-30T16:20:17.451Z,98387.09
2019-03-30T16:22:48.681Z,98387.02
2019-03-30T16:25:19.718Z,98386.64
2019-03-30T16:27:50.864Z,98393.45
2019-03-30T16:30:22.502Z,98391.06
2019-03-30T16:32:53.514Z,98389.58
2019-03-30T16:35:24.599Z,98385.25
2019-03-30T16:37:55.449Z,98386.86
2019-03-30T16:40:27.001Z,98389.92
2019-03-30T16:42:58.120Z,98382.50
2019-03-30T16:45:29.270Z,98386.49
2019-03-30T16:48:00.513Z,98384.98
2019-03-30T16:50:31.541Z,98387.29
2019-03-30T16:53:02.715Z,98388.59
2019-03-30T16:55:34.192Z,98387.41
2019-03-30T16:58:05.236Z,98387.84
2019-03-30T17:00:36.242Z,98387.30
2019-03-30T17:03:07.343Z,98382.59
2019-03-30T17:05:38.375Z,98382.12
2019-03-30T17:08:09.899Z,98385.59
2019-03-30T17:10:40.784Z,98380.59
2019-03-30T17:13:11.885Z,98385.08
2019-03-30T17:15:43.083Z,98378.41
2019-03-30T17:18:13.931Z,98378.67
2019-03-30T17:20:44.895Z,98383.05
2019-03-30T17:23:14.607Z,98382.03
2019-03-30T17:25:45.048Z,98383.11
2019-03-30T17:28:15.723Z,98384.97
2019-03-30T17:30:46.666Z,98383.03
2019-03-30T17:33:17.436Z,98384.19
2019-03-30T17:35:48.217Z,98379.37
2019-03-30T17:38:19.007Z,98386.66
2019-03-30T17:40:50.148Z,98390.88
2019-03-30T17:43:21.401Z,98389.47
2019-03-30T17:45:52.525Z,98389.21
2019-03-30T17:48:23.478Z,98384.84
2019-03-30T17:50:57.878Z,98383.91
2019-03-30T17:53:27.021Z,98390.38
2019-03-30T17:56:01.590Z,98389.54
2019-03-30T17:58:31.210Z,98391.08
2019-03-30T18:01:02.521Z,98386.55
2019-03-30T18:03:34.470Z,98394.50
2019-03-30T18:06:05.610Z,98399.27
2019-03-30T18:08:37.071Z,98401.86
2019-03-30T18:11:09.345Z,98400.87
2019-03-30T18:13:40.956Z,98405.39
2019-03-30T18:16:11.914Z,98400.72
2019-03-30T18:18:42.875Z,98405.98
2019-03-30T18:21:14.182Z,98404.66
2019-03-30T18:23:47.627Z,98405.68
2019-03-30T18:26:19.040Z,98407.31
2019-03-30T18:28:50.104Z,98408.64
2019-03-30T18:31:21.349Z,98411.22
2019-03-30T18:33:52.891Z,98418.48
2019-03-30T18:36:24.731Z,98419.34
2019-03-30T18:39:09.802Z,98417.89
2019-03-30T18:41:43.548Z,98428.29
2019-03-30T18:44:16.143Z,98425.98
2019-03-30T18:46:47.315Z,98429.16
2019-03-30T18:49:19.053Z,98428.02
2019-03-30T18:51:51.242Z,98433.64
2019-03-30T18:54:22.401Z,98433.42
2019-03-30T18:56:53.202Z,98438.87
2019-03-30T18:59:24.200Z,98435.83
2019-03-30T19:01:55.326Z,98440.80
2019-03-30T19:04:26.633Z,98444.09
2019-03-30T19:06:57.653Z,98451.48
2019-03-30T19:09:28.520Z,98449.81
2019-03-30T19:11:59.671Z,98459.52
2019-03-30T19:14:31.146Z,98463.13
2019-03-30T19:17:02.448Z,98476.69
2019-03-30T19:19:33.581Z,98476.59
2019-03-30T19:22:04.678Z,98480.01
2019-03-30T19:24:35.572Z,98480.98
2019-03-30T19:27:06.588Z,98474.36
2019-03-30T19:29:37.873Z,98479.42
2019-03-30T19:32:09.152Z,98471.98
2019-03-30T19:34:40.650Z,98470.74
2019-03-30T19:37:11.659Z,98474.37
2019-03-30T19:39:42.611Z,98473.05
2019-03-30T19:42:15.700Z,98472.65
2019-03-30T19:44:46.621Z,98475.19
2019-03-30T19:47:17.987Z,98472.34
2019-03-30T19:49:48.875Z,98473.05
2019-03-30T19:52:20.086Z,98469.14
2019-03-30T19:54:51.642Z,98470.38
2019-03-30T19:57:27.379Z,98474.98
2019-03-30T19:59:56.933Z,98479.00
2019-03-30T20:02:28.351Z,98477.45
2019-03-30T20:05:00.504Z,98466.93
2019-03-30T20:07:32.176Z,98468.95
2019-03-30T20:10:03.427Z,98470.74
2019-03-30T20:12:35.640Z,98476.28
2019-03-30T20:15:07.677Z,98472.31
2019-03-30T20:17:39.896Z,98472.42
2019-03-30T20:20:11.192Z,98468.73
2019-03-30T20:22:42.244Z,98467.72
2019-03-30T20:25:14.485Z,98468.64
2019-03-30T20:27:45.454Z,98470.27
2019-03-30T20:30:16.697Z,98467.16
2019-03-30T20:32:47.755Z,98464.48
2019-03-30T20:35:18.933Z,98464.26
2019-03-30T20:37:50.243Z,98470.47
2019-03-30T20:40:21.500Z,98470.19
2019-03-30T20:42:52.727Z,98472.14
2019-03-30T20:45:23.929Z,98467.88
2019-03-30T20:47:55.035Z,98467.38
2019-03-30T20:50:26.336Z,98474.41
2019-03-30T20:52:57.484Z,98476.01
2019-03-30T20:55:28.647Z,98473.89
2019-03-30T20:57:59.651Z,98469.86
2019-03-30T21:00:31.159Z,98468.58
2019-03-30T21:03:02.352Z,98466.18
2019-03-30T21:05:32.260Z,98476.77
2019-03-30T21:08:03.421Z,98471.66
2019-03-30T21:10:34.810Z,98477.05
2019-03-30T21:13:06.308Z,98477.59
2019-03-30T21:15:37.277Z,98476.29
2019-03-30T21:18:08.289Z,98476.31
2019-03-30T21:20:39.324Z,98480.11
2019-03-30T21:23:10.369Z,98478.21
2019-03-30T21:25:41.254Z,98475.27
2019-03-30T21:28:12.881Z,98483.67
2019-03-30T21:30:44.374Z,98485.30
2019-03-30T21:33:16.434Z,98487.20
2019-03-30T21:35:47.738Z,98481.80
2019-03-30T21:38:19.264Z,98483.69
2019-03-30T21:40:50.642Z,98480.48
2019-03-30T21:43:21.817Z,98489.90
2019-03-30T21:45:52.888Z,98480.75
2019-03-30T21:48:23.927Z,98477.80
2019-03-30T21:50:55.260Z,98475.37
2019-03-30T21:53:26.499Z,98479.67
2019-03-30T21:55:57.801Z,98481.83
2019-03-30T21:58:28.884Z,98479.65
2019-03-30T22:01:00.201Z,98478.84
2019-03-30T22:03:31.586Z,98474.55
2019-03-30T22:06:02.423Z,98476.41
2019-03-30T22:08:34.341Z,98474.27
2019-03-30T22:11:05.622Z,98474.80
2019-03-30T22:13:37.601Z,98477.48
2019-03-30T22:16:08.578Z,98479.61
2019-03-30T22:18:39.424Z,98473.42
2019-03-30T22:21:10.297Z,98475.00
2019-03-30T22:23:41.505Z,98472.58
2019-03-30T22:26:12.637Z,98473.66
2019-03-30T22:28:43.700Z,98473.62
2019-03-30T22:31:15.028Z,98475.75
2019-03-30T22:33:45.971Z,98474.37
2019-03-30T22:36:16.893Z,98477.05
2019-03-30T22:38:47.901Z,98482.67
2019-03-30T22:41:19.142Z,98479.70
2019-03-30T22:43:50.070Z,98479.13
2019-03-30T22:46:21.079Z,98477.75
2019-03-30T22:48:52.130Z,98481.21
2019-03-30T22:51:23.170Z,98477.92
2019-03-30T22:53:54.304Z,98476.00
2019-03-30T22:56:25.526Z,98479.22
2019-03-30T22:58:56.821Z,98473.55
2019-03-30T23:01:26.878Z,98476.20
2019-03-30T23:03:57.587Z,98477.72
2019-03-30T23:06:27.250Z,98481.44
2019-03-30T23:08:58.008Z,98475.23
2019-03-30T23:11:29.046Z,98471.73
2019-03-30T23:13:59.150Z,98476.62
2019-03-30T23:16:30.072Z,98467.27
2019-03-30T23:19:00.920Z,98472.33
2019-03-30T23:21:33.357Z,98477.13
2019-03-30T23:24:04.477Z,98471.73
2019-03-30T23:26:35.916Z,98480.00
2019-03-30T23:29:07.087Z,98477.30
2019-03-30T23:31:38.043Z,98475.08
2019-03-30T23:34:08.959Z,98470.74
2019-03-30T23:36:40.075Z,98469.59
2019-03-30T23:39:11.119Z,98474.64
2019-03-30T23:41:42.031Z,98474.85
2019-03-30T23:44:13.227Z,98474.02
2019-03-30T23:46:44.268Z,98476.14
2019-03-30T23:49:15.326Z,98471.77
2019-03-30T23:51:46.259Z,98480.80
2019-03-30T23:54:18.313Z,98477.86
2019-03-30T23:56:50.066Z,98477.11
2019-03-30T23:59:21.512Z,98477.92
